sensor_id;sensor_type;location;lat;lon;timestamp;P1;durP1;ratioP1;P2;durP2;ratioP2
5823;SDS011;2938;52.254;12.988;2022-08-11T00:00:44;9.57;;;3.22;;
5823;SDS011;2938;52.254;12.988;2022-08-11T00:03:32;4.85;;;3.65;;
5823;SDS011;2938;52.254;12.988;2022-08-11T00:06:23;5.28;;;4.00;;
5823;SDS011;2938;52.254;12.988;2022-08-11T00:09:16;5.43;;;3.08;;
5823;SDS011;2938;52.254;12.988;2022-08-11T00:12:10;8.77;;;5.47;;
5823;SDS011;2938;52.254;12.988;2022-08-11T00:14:59;5.18;;;3.00;;
5823;SDS011;2938;52.254;12.988;2022-08-11T00:17:47;6.20;;;3.38;;
5823;SDS011;2938;52.254;12.988;2022-08-11T00:20:35;8.38;;;3.00;;
5823;SDS011;2938;52.254;12.988;2022-08-11T00:23:24;3.42;;;3.13;;
5823;SDS011;2938;52.254;12.988;2022-08-11T00:26:13;3.38;;;3.08;;
5823;SDS011;2938;52.254;12.988;2022-08-11T00:29:06;10.05;;;3.88;;
5823;SDS011;2938;52.254;12.988;2022-08-11T00:31:55;8.90;;;4.05;;
5823;SDS011;2938;52.254;12.988;2022-08-11T00:34:44;4.28;;;3.65;;
5823;SDS011;2938;52.254;12.988;2022-08-11T00:37:32;5.20;;;3.50;;
5823;SDS011;2938;52.254;12.988;2022-08-11T00:40:24;9.20;;;3.78;;
5823;SDS011;2938;52.254;12.988;2022-08-11T00:43:16;5.20;;;3.30;;
5823;SDS011;2938;52.254;12.988;2022-08-11T00:49:07;7.53;;;3.70;;
5823;SDS011;2938;52.254;12.988;2022-08-11T00:51:59;18.17;;;4.35;;
5823;SDS011;2938;52.254;12.988;2022-08-11T00:58:39;8.02;;;4.03;;
5823;SDS011;2938;52.254;12.988;2022-08-11T01:01:44;8.52;;;3.58;;
5823;SDS011;2938;52.254;12.988;2022-08-11T01:04:44;7.80;;;3.47;;
5823;SDS011;2938;52.254;12.988;2022-08-11T01:11:20;4.70;;;3.60;;
5823;SDS011;2938;52.254;12.988;2022-08-11T01:14:28;5.72;;;4.05;;
5823;SDS011;2938;52.254;12.988;2022-08-11T01:20:45;7.72;;;3.35;;
5823;SDS011;2938;52.254;12.988;2022-08-11T01:24:12;8.30;;;3.40;;
5823;SDS011;2938;52.254;12.988;2022-08-11T01:27:34;5.47;;;3.67;;
5823;SDS011;2938;52.254;12.988;2022-08-11T01:30:46;11.23;;;4.10;;
5823;SDS011;2938;52.254;12.988;2022-08-11T01:37:06;5.30;;;3.38;;
5823;SDS011;2938;52.254;12.988;2022-08-11T01:40:22;15.45;;;4.35;;
5823;SDS011;2938;52.254;12.988;2022-08-11T01:47:08;7.80;;;3.70;;
5823;SDS011;2938;52.254;12.988;2022-08-11T01:50:36;10.02;;;3.33;;
5823;SDS011;2938;52.254;12.988;2022-08-11T01:53:42;4.82;;;3.08;;
5823;SDS011;2938;52.254;12.988;2022-08-11T01:56:37;7.55;;;3.45;;
5823;SDS011;2938;52.254;12.988;2022-08-11T01:59:31;6.50;;;4.20;;
5823;SDS011;2938;52.254;12.988;2022-08-11T02:02:22;6.20;;;3.92;;
5823;SDS011;2938;52.254;12.988;2022-08-11T02:05:35;5.85;;;4.18;;
5823;SDS011;2938;52.254;12.988;2022-08-11T02:08:34;5.45;;;4.03;;
5823;SDS011;2938;52.254;12.988;2022-08-11T02:11:29;5.63;;;3.85;;
5823;SDS011;2938;52.254;12.988;2022-08-11T02:14:20;5.95;;;4.40;;
5823;SDS011;2938;52.254;12.988;2022-08-11T02:17:12;11.77;;;3.67;;
5823;SDS011;2938;52.254;12.988;2022-08-11T02:20:02;6.03;;;3.50;;
5823;SDS011;2938;52.254;12.988;2022-08-11T02:23:15;7.20;;;3.70;;
5823;SDS011;2938;52.254;12.988;2022-08-11T02:26:27;4.70;;;3.75;;
5823;SDS011;2938;52.254;12.988;2022-08-11T02:29:22;6.70;;;3.95;;
5823;SDS011;2938;52.254;12.988;2022-08-11T02:32:12;6.03;;;3.70;;
5823;SDS011;2938;52.254;12.988;2022-08-11T02:35:22;6.30;;;4.97;;
5823;SDS011;2938;52.254;12.988;2022-08-11T02:38:16;6.30;;;3.90;;
5823;SDS011;2938;52.254;12.988;2022-08-11T02:41:09;9.20;;;3.78;;
5823;SDS011;2938;52.254;12.988;2022-08-11T02:44:31;8.27;;;4.85;;
5823;SDS011;2938;52.254;12.988;2022-08-11T02:47:26;5.95;;;3.55;;
5823;SDS011;2938;52.254;12.988;2022-08-11T02:50:23;9.20;;;4.28;;
5823;SDS011;2938;52.254;12.988;2022-08-11T02:53:12;7.72;;;3.88;;
5823;SDS011;2938;52.254;12.988;2022-08-11T02:56:05;4.70;;;4.30;;
5823;SDS011;2938;52.254;12.988;2022-08-11T02:59:00;8.05;;;3.65;;
5823;SDS011;2938;52.254;12.988;2022-08-11T03:02:12;5.72;;;3.80;;
5823;SDS011;2938;52.254;12.988;2022-08-11T03:05:04;6.63;;;3.95;;
5823;SDS011;2938;52.254;12.988;2022-08-11T03:08:13;10.45;;;4.35;;
5823;SDS011;2938;52.254;12.988;2022-08-11T03:11:06;4.13;;;3.72;;
5823;SDS011;2938;52.254;12.988;2022-08-11T03:14:15;5.90;;;4.72;;
5823;SDS011;2938;52.254;12.988;2022-08-11T03:17:27;4.10;;;3.67;;
5823;SDS011;2938;52.254;12.988;2022-08-11T03:20:22;5.97;;;3.83;;
5823;SDS011;2938;52.254;12.988;2022-08-11T03:23:16;6.05;;;4.15;;
5823;SDS011;2938;52.254;12.988;2022-08-11T03:26:10;7.50;;;3.85;;
5823;SDS011;2938;52.254;12.988;2022-08-11T03:29:03;5.07;;;3.90;;
5823;SDS011;2938;52.254;12.988;2022-08-11T03:31:54;5.85;;;4.03;;
5823;SDS011;2938;52.254;12.988;2022-08-11T03:34:46;7.38;;;3.97;;
5823;SDS011;2938;52.254;12.988;2022-08-11T03:37:37;6.30;;;4.47;;
5823;SDS011;2938;52.254;12.988;2022-08-11T03:43:51;5.15;;;3.67;;
5823;SDS011;2938;52.254;12.988;2022-08-11T03:46:46;6.90;;;4.13;;
5823;SDS011;2938;52.254;12.988;2022-08-11T03:50:05;7.43;;;4.30;;
5823;SDS011;2938;52.254;12.988;2022-08-11T03:53:04;7.38;;;4.68;;
5823;SDS011;2938;52.254;12.988;2022-08-11T03:56:10;5.65;;;3.67;;
5823;SDS011;2938;52.254;12.988;2022-08-11T03:59:21;6.18;;;4.75;;
5823;SDS011;2938;52.254;12.988;2022-08-11T04:02:26;8.75;;;4.07;;
5823;SDS011;2938;52.254;12.988;2022-08-11T04:05:33;45.75;;;8.30;;
5823;SDS011;2938;52.254;12.988;2022-08-11T04:08:42;47.80;;;8.77;;
5823;SDS011;2938;52.254;12.988;2022-08-11T04:11:45;25.65;;;5.72;;
5823;SDS011;2938;52.254;12.988;2022-08-11T04:14:50;4.70;;;4.10;;
5823;SDS011;2938;52.254;12.988;2022-08-11T04:21:54;5.60;;;4.50;;
5823;SDS011;2938;52.254;12.988;2022-08-11T04:25:03;5.70;;;3.67;;
5823;SDS011;2938;52.254;12.988;2022-08-11T04:28:05;4.93;;;4.22;;
5823;SDS011;2938;52.254;12.988;2022-08-11T04:33:53;4.18;;;3.67;;
5823;SDS011;2938;52.254;12.988;2022-08-11T04:36:50;6.40;;;4.20;;
5823;SDS011;2938;52.254;12.988;2022-08-11T04:40:05;5.70;;;4.65;;
5823;SDS011;2938;52.254;12.988;2022-08-11T04:43:08;8.30;;;4.03;;
5823;SDS011;2938;52.254;12.988;2022-08-11T04:46:32;8.80;;;3.95;;
5823;SDS011;2938;52.254;12.988;2022-08-11T04:49:43;7.20;;;3.25;;
5823;SDS011;2938;52.254;12.988;2022-08-11T04:53:02;7.15;;;4.35;;
5823;SDS011;2938;52.254;12.988;2022-08-11T04:56:16;7.90;;;4.70;;
5823;SDS011;2938;52.254;12.988;2022-08-11T04:59:50;13.00;;;4.55;;
5823;SDS011;2938;52.254;12.988;2022-08-11T05:06:38;8.88;;;4.65;;
5823;SDS011;2938;52.254;12.988;2022-08-11T05:09:50;7.05;;;4.35;;
5823;SDS011;2938;52.254;12.988;2022-08-11T05:12:45;8.25;;;4.07;;
5823;SDS011;2938;52.254;12.988;2022-08-11T05:15:35;10.32;;;4.13;;
5823;SDS011;2938;52.254;12.988;2022-08-11T05:18:51;6.45;;;4.50;;
5823;SDS011;2938;52.254;12.988;2022-08-11T05:22:11;7.33;;;4.17;;
5823;SDS011;2938;52.254;12.988;2022-08-11T05:25:18;8.40;;;5.15;;
5823;SDS011;2938;52.254;12.988;2022-08-11T05:28:34;8.57;;;4.65;;
5823;SDS011;2938;52.254;12.988;2022-08-11T05:31:42;5.70;;;4.22;;
5823;SDS011;2938;52.254;12.988;2022-08-11T05:34:52;5.90;;;4.32;;
5823;SDS011;2938;52.254;12.988;2022-08-11T05:37:41;9.60;;;4.68;;
5823;SDS011;2938;52.254;12.988;2022-08-11T05:40:48;7.10;;;4.15;;
5823;SDS011;2938;52.254;12.988;2022-08-11T05:43:53;7.75;;;3.88;;
5823;SDS011;2938;52.254;12.988;2022-08-11T05:47:01;10.65;;;4.82;;
5823;SDS011;2938;52.254;12.988;2022-08-11T05:50:07;7.90;;;4.28;;
5823;SDS011;2938;52.254;12.988;2022-08-11T05:53:13;7.75;;;4.72;;
5823;SDS011;2938;52.254;12.988;2022-08-11T05:56:19;5.85;;;4.35;;
5823;SDS011;2938;52.254;12.988;2022-08-11T05:59:10;9.05;;;3.85;;
5823;SDS011;2938;52.254;12.988;2022-08-11T06:01:59;9.90;;;5.60;;
5823;SDS011;2938;52.254;12.988;2022-08-11T06:04:46;8.45;;;4.80;;
5823;SDS011;2938;52.254;12.988;2022-08-11T06:07:41;6.75;;;4.53;;
5823;SDS011;2938;52.254;12.988;2022-08-11T06:10:31;5.70;;;3.40;;
5823;SDS011;2938;52.254;12.988;2022-08-11T06:13:22;5.45;;;4.28;;
5823;SDS011;2938;52.254;12.988;2022-08-11T06:16:10;7.55;;;4.35;;
5823;SDS011;2938;52.254;12.988;2022-08-11T06:19:00;6.25;;;3.80;;
5823;SDS011;2938;52.254;12.988;2022-08-11T06:21:47;7.63;;;4.03;;
5823;SDS011;2938;52.254;12.988;2022-08-11T06:24:34;6.97;;;4.72;;
5823;SDS011;2938;52.254;12.988;2022-08-11T06:27:25;11.80;;;4.53;;
5823;SDS011;2938;52.254;12.988;2022-08-11T06:30:14;11.30;;;5.38;;
5823;SDS011;2938;52.254;12.988;2022-08-11T06:33:03;4.72;;;4.30;;
5823;SDS011;2938;52.254;12.988;2022-08-11T06:35:56;25.35;;;5.35;;
5823;SDS011;2938;52.254;12.988;2022-08-11T06:38:48;6.13;;;4.70;;
5823;SDS011;2938;52.254;12.988;2022-08-11T06:41:44;8.27;;;4.25;;
5823;SDS011;2938;52.254;12.988;2022-08-11T06:44:43;5.13;;;4.53;;
5823;SDS011;2938;52.254;12.988;2022-08-11T06:47:36;6.75;;;5.03;;
5823;SDS011;2938;52.254;12.988;2022-08-11T06:50:28;11.60;;;5.05;;
5823;SDS011;2938;52.254;12.988;2022-08-11T06:53:33;10.60;;;4.53;;
5823;SDS011;2938;52.254;12.988;2022-08-11T06:56:22;12.68;;;4.90;;
5823;SDS011;2938;52.254;12.988;2022-08-11T06:59:28;8.50;;;5.05;;
5823;SDS011;2938;52.254;12.988;2022-08-11T07:02:36;4.63;;;4.13;;
5823;SDS011;2938;52.254;12.988;2022-08-11T07:05:36;10.45;;;5.15;;
5823;SDS011;2938;52.254;12.988;2022-08-11T07:08:37;15.68;;;5.35;;
5823;SDS011;2938;52.254;12.988;2022-08-11T07:11:59;7.05;;;4.95;;
5823;SDS011;2938;52.254;12.988;2022-08-11T07:15:09;10.00;;;3.85;;
5823;SDS011;2938;52.254;12.988;2022-08-11T07:18:18;9.63;;;3.92;;
5823;SDS011;2938;52.254;12.988;2022-08-11T07:21:26;5.07;;;4.40;;
5823;SDS011;2938;52.254;12.988;2022-08-11T07:24:33;13.07;;;4.65;;
5823;SDS011;2938;52.254;12.988;2022-08-11T07:27:40;9.05;;;4.88;;
5823;SDS011;2938;52.254;12.988;2022-08-11T07:30:46;9.48;;;4.80;;
5823;SDS011;2938;52.254;12.988;2022-08-11T07:33:38;11.80;;;4.63;;
5823;SDS011;2938;52.254;12.988;2022-08-11T07:36:27;11.70;;;4.70;;
5823;SDS011;2938;52.254;12.988;2022-08-11T07:39:17;8.48;;;4.45;;
5823;SDS011;2938;52.254;12.988;2022-08-11T07:42:06;8.32;;;4.28;;
5823;SDS011;2938;52.254;12.988;2022-08-11T07:44:58;6.30;;;4.40;;
5823;SDS011;2938;52.254;12.988;2022-08-11T07:48:03;11.82;;;4.78;;
5823;SDS011;2938;52.254;12.988;2022-08-11T07:51:10;8.35;;;3.95;;
5823;SDS011;2938;52.254;12.988;2022-08-11T07:54:17;5.90;;;4.28;;
5823;SDS011;2938;52.254;12.988;2022-08-11T07:57:04;5.82;;;3.75;;
5823;SDS011;2938;52.254;12.988;2022-08-11T08:00:12;6.20;;;4.32;;
5823;SDS011;2938;52.254;12.988;2022-08-11T08:03:16;7.55;;;4.05;;
5823;SDS011;2938;52.254;12.988;2022-08-11T08:06:22;6.82;;;4.78;;
5823;SDS011;2938;52.254;12.988;2022-08-11T08:09:27;11.90;;;5.28;;
5823;SDS011;2938;52.254;12.988;2022-08-11T08:12:32;8.27;;;3.88;;
5823;SDS011;2938;52.254;12.988;2022-08-11T08:15:40;23.35;;;5.13;;
5823;SDS011;2938;52.254;12.988;2022-08-11T08:18:45;7.95;;;5.25;;
5823;SDS011;2938;52.254;12.988;2022-08-11T08:21:33;6.75;;;5.00;;
5823;SDS011;2938;52.254;12.988;2022-08-11T08:24:20;7.85;;;4.55;;
5823;SDS011;2938;52.254;12.988;2022-08-11T08:27:07;7.82;;;4.22;;
5823;SDS011;2938;52.254;12.988;2022-08-11T08:29:56;5.43;;;4.65;;
5823;SDS011;2938;52.254;12.988;2022-08-11T08:33:01;6.32;;;3.92;;
5823;SDS011;2938;52.254;12.988;2022-08-11T08:35:50;3.45;;;3.15;;
5823;SDS011;2938;52.254;12.988;2022-08-11T08:38:56;4.20;;;3.88;;
5823;SDS011;2938;52.254;12.988;2022-08-11T08:41:43;6.32;;;4.18;;
5823;SDS011;2938;52.254;12.988;2022-08-11T08:44:30;4.60;;;3.58;;
5823;SDS011;2938;52.254;12.988;2022-08-11T08:47:19;13.50;;;4.38;;
5823;SDS011;2938;52.254;12.988;2022-08-11T08:50:09;6.70;;;4.00;;
5823;SDS011;2938;52.254;12.988;2022-08-11T08:52:59;9.75;;;4.65;;
5823;SDS011;2938;52.254;12.988;2022-08-11T08:55:50;7.65;;;4.03;;
5823;SDS011;2938;52.254;12.988;2022-08-11T08:58:41;8.13;;;3.35;;
5823;SDS011;2938;52.254;12.988;2022-08-11T09:01:32;5.07;;;3.38;;
5823;SDS011;2938;52.254;12.988;2022-08-11T09:04:22;8.27;;;3.95;;
5823;SDS011;2938;52.254;12.988;2022-08-11T09:07:10;5.57;;;4.00;;
5823;SDS011;2938;52.254;12.988;2022-08-11T09:10:11;6.28;;;4.28;;
5823;SDS011;2938;52.254;12.988;2022-08-11T09:13:03;5.82;;;3.65;;
5823;SDS011;2938;52.254;12.988;2022-08-11T09:15:50;4.78;;;3.28;;
5823;SDS011;2938;52.254;12.988;2022-08-11T09:18:37;5.13;;;3.55;;
5823;SDS011;2938;52.254;12.988;2022-08-11T09:21:25;3.72;;;2.97;;
5823;SDS011;2938;52.254;12.988;2022-08-11T09:24:12;4.90;;;3.72;;
5823;SDS011;2938;52.254;12.988;2022-08-11T09:27:16;8.25;;;3.03;;
5823;SDS011;2938;52.254;12.988;2022-08-11T09:30:09;10.65;;;4.38;;
5823;SDS011;2938;52.254;12.988;2022-08-11T09:33:00;4.03;;;3.40;;
5823;SDS011;2938;52.254;12.988;2022-08-11T09:35:50;3.85;;;3.25;;
5823;SDS011;2938;52.254;12.988;2022-08-11T09:38:37;9.32;;;3.33;;
5823;SDS011;2938;52.254;12.988;2022-08-11T09:41:41;9.38;;;3.97;;
5823;SDS011;2938;52.254;12.988;2022-08-11T09:44:31;3.47;;;3.17;;
5823;SDS011;2938;52.254;12.988;2022-08-11T09:47:38;7.40;;;4.15;;
5823;SDS011;2938;52.254;12.988;2022-08-11T09:50:25;5.72;;;4.55;;
5823;SDS011;2938;52.254;12.988;2022-08-11T09:53:13;4.30;;;3.25;;
5823;SDS011;2938;52.254;12.988;2022-08-11T09:56:01;4.82;;;2.70;;
5823;SDS011;2938;52.254;12.988;2022-08-11T09:59:08;3.28;;;2.90;;
5823;SDS011;2938;52.254;12.988;2022-08-11T10:01:56;15.32;;;5.40;;
5823;SDS011;2938;52.254;12.988;2022-08-11T10:04:47;3.35;;;2.72;;
5823;SDS011;2938;52.254;12.988;2022-08-11T10:07:36;6.90;;;3.63;;
5823;SDS011;2938;52.254;12.988;2022-08-11T10:10:22;5.97;;;2.47;;
5823;SDS011;2938;52.254;12.988;2022-08-11T10:13:10;3.67;;;3.13;;
5823;SDS011;2938;52.254;12.988;2022-08-11T10:16:02;5.70;;;3.22;;
5823;SDS011;2938;52.254;12.988;2022-08-11T10:18:49;4.32;;;3.10;;
5823;SDS011;2938;52.254;12.988;2022-08-11T10:21:39;4.68;;;2.80;;
5823;SDS011;2938;52.254;12.988;2022-08-11T10:24:27;3.38;;;2.17;;
5823;SDS011;2938;52.254;12.988;2022-08-11T10:27:30;9.52;;;3.80;;
5823;SDS011;2938;52.254;12.988;2022-08-11T10:30:17;4.28;;;2.90;;
5823;SDS011;2938;52.254;12.988;2022-08-11T10:33:21;5.35;;;3.75;;
5823;SDS011;2938;52.254;12.988;2022-08-11T10:36:26;13.35;;;4.43;;
5823;SDS011;2938;52.254;12.988;2022-08-11T10:39:17;3.35;;;3.00;;
5823;SDS011;2938;52.254;12.988;2022-08-11T10:42:07;7.03;;;2.85;;
5823;SDS011;2938;52.254;12.988;2022-08-11T10:45:12;6.85;;;3.45;;
5823;SDS011;2938;52.254;12.988;2022-08-11T10:48:14;3.10;;;2.80;;
5823;SDS011;2938;52.254;12.988;2022-08-11T10:51:01;5.43;;;2.80;;
5823;SDS011;2938;52.254;12.988;2022-08-11T10:54:02;10.18;;;3.80;;
5823;SDS011;2938;52.254;12.988;2022-08-11T10:57:11;9.77;;;3.53;;
5823;SDS011;2938;52.254;12.988;2022-08-11T11:00:17;3.50;;;2.80;;
5823;SDS011;2938;52.254;12.988;2022-08-11T11:03:04;8.18;;;2.67;;
5823;SDS011;2938;52.254;12.988;2022-08-11T11:05:52;5.95;;;3.15;;
5823;SDS011;2938;52.254;12.988;2022-08-11T11:08:41;5.43;;;2.60;;
5823;SDS011;2938;52.254;12.988;2022-08-11T11:11:42;4.65;;;2.72;;
5823;SDS011;2938;52.254;12.988;2022-08-11T11:14:50;7.40;;;2.92;;
5823;SDS011;2938;52.254;12.988;2022-08-11T11:17:56;3.78;;;2.80;;
5823;SDS011;2938;52.254;12.988;2022-08-11T11:20:50;6.30;;;2.90;;
5823;SDS011;2938;52.254;12.988;2022-08-11T11:26:36;12.40;;;4.07;;
5823;SDS011;2938;52.254;12.988;2022-08-11T11:32:32;2.72;;;2.45;;
5823;SDS011;2938;52.254;12.988;2022-08-11T11:35:26;4.30;;;2.70;;
5823;SDS011;2938;52.254;12.988;2022-08-11T11:38:19;8.02;;;2.97;;
5823;SDS011;2938;52.254;12.988;2022-08-11T11:41:06;6.90;;;3.33;;
5823;SDS011;2938;52.254;12.988;2022-08-11T11:44:11;3.33;;;2.17;;
5823;SDS011;2938;52.254;12.988;2022-08-11T11:46:58;4.63;;;2.85;;
5823;SDS011;2938;52.254;12.988;2022-08-11T11:49:47;4.00;;;2.30;;
5823;SDS011;2938;52.254;12.988;2022-08-11T11:52:34;6.25;;;2.78;;
5823;SDS011;2938;52.254;12.988;2022-08-11T11:55:22;8.48;;;2.90;;
5823;SDS011;2938;52.254;12.988;2022-08-11T11:58:10;5.97;;;2.95;;
5823;SDS011;2938;52.254;12.988;2022-08-11T12:01:16;2.42;;;2.22;;
5823;SDS011;2938;52.254;12.988;2022-08-11T12:04:04;3.65;;;2.95;;
5823;SDS011;2938;52.254;12.988;2022-08-11T12:06:53;3.20;;;2.67;;
5823;SDS011;2938;52.254;12.988;2022-08-11T12:10:00;11.98;;;3.50;;
5823;SDS011;2938;52.254;12.988;2022-08-11T12:12:47;4.60;;;2.55;;
5823;SDS011;2938;52.254;12.988;2022-08-11T12:15:52;3.22;;;2.95;;
5823;SDS011;2938;52.254;12.988;2022-08-11T12:18:39;8.13;;;3.17;;
5823;SDS011;2938;52.254;12.988;2022-08-11T12:21:27;6.90;;;3.20;;
5823;SDS011;2938;52.254;12.988;2022-08-11T12:24:19;3.28;;;2.70;;
5823;SDS011;2938;52.254;12.988;2022-08-11T12:27:23;6.55;;;3.10;;
5823;SDS011;2938;52.254;12.988;2022-08-11T12:30:11;10.70;;;2.97;;
5823;SDS011;2938;52.254;12.988;2022-08-11T12:32:58;6.20;;;3.30;;
5823;SDS011;2938;52.254;12.988;2022-08-11T12:35:51;5.10;;;2.42;;
5823;SDS011;2938;52.254;12.988;2022-08-11T12:38:42;2.40;;;2.20;;
5823;SDS011;2938;52.254;12.988;2022-08-11T12:41:31;4.75;;;2.92;;
5823;SDS011;2938;52.254;12.988;2022-08-11T12:44:36;5.53;;;3.38;;
5823;SDS011;2938;52.254;12.988;2022-08-11T12:47:41;10.82;;;3.88;;
5823;SDS011;2938;52.254;12.988;2022-08-11T12:50:43;5.43;;;3.90;;
5823;SDS011;2938;52.254;12.988;2022-08-11T12:53:51;8.10;;;3.05;;
5823;SDS011;2938;52.254;12.988;2022-08-11T12:56:41;5.75;;;3.03;;
5823;SDS011;2938;52.254;12.988;2022-08-11T12:59:48;3.13;;;2.83;;
5823;SDS011;2938;52.254;12.988;2022-08-11T13:02:53;5.88;;;3.38;;
5823;SDS011;2938;52.254;12.988;2022-08-11T13:05:58;6.95;;;3.25;;
5823;SDS011;2938;52.254;12.988;2022-08-11T13:08:46;6.18;;;2.42;;
5823;SDS011;2938;52.254;12.988;2022-08-11T13:11:33;6.20;;;2.92;;
5823;SDS011;2938;52.254;12.988;2022-08-11T13:14:42;4.38;;;3.30;;
5823;SDS011;2938;52.254;12.988;2022-08-11T13:17:29;5.13;;;3.10;;
5823;SDS011;2938;52.254;12.988;2022-08-11T13:20:20;3.22;;;2.92;;
5823;SDS011;2938;52.254;12.988;2022-08-11T13:23:10;4.22;;;3.20;;
5823;SDS011;2938;52.254;12.988;2022-08-11T13:26:00;4.10;;;2.95;;
5823;SDS011;2938;52.254;12.988;2022-08-11T13:28:47;7.30;;;3.08;;
5823;SDS011;2938;52.254;12.988;2022-08-11T13:31:35;6.35;;;3.35;;
5823;SDS011;2938;52.254;12.988;2022-08-11T13:34:23;3.47;;;3.17;;
5823;SDS011;2938;52.254;12.988;2022-08-11T13:37:11;4.25;;;2.88;;
5823;SDS011;2938;52.254;12.988;2022-08-11T13:39:58;2.72;;;2.53;;
5823;SDS011;2938;52.254;12.988;2022-08-11T13:42:46;12.95;;;3.20;;
5823;SDS011;2938;52.254;12.988;2022-08-11T13:45:34;3.72;;;3.35;;
5823;SDS011;2938;52.254;12.988;2022-08-11T13:48:23;8.52;;;3.20;;
5823;SDS011;2938;52.254;12.988;2022-08-11T13:51:10;6.63;;;3.28;;
5823;SDS011;2938;52.254;12.988;2022-08-11T13:54:15;7.85;;;3.15;;
5823;SDS011;2938;52.254;12.988;2022-08-11T13:57:03;5.78;;;3.85;;
5823;SDS011;2938;52.254;12.988;2022-08-11T13:59:51;3.97;;;2.42;;
5823;SDS011;2938;52.254;12.988;2022-08-11T14:02:40;6.22;;;3.13;;
5823;SDS011;2938;52.254;12.988;2022-08-11T14:05:32;5.82;;;2.67;;
5823;SDS011;2938;52.254;12.988;2022-08-11T14:08:23;3.72;;;3.15;;
5823;SDS011;2938;52.254;12.988;2022-08-11T14:11:12;2.97;;;2.78;;
5823;SDS011;2938;52.254;12.988;2022-08-11T14:14:22;2.83;;;2.50;;
5823;SDS011;2938;52.254;12.988;2022-08-11T14:17:11;7.13;;;3.22;;
5823;SDS011;2938;52.254;12.988;2022-08-11T14:20:02;2.95;;;2.60;;
5823;SDS011;2938;52.254;12.988;2022-08-11T14:22:52;4.43;;;3.67;;
5823;SDS011;2938;52.254;12.988;2022-08-11T14:25:38;6.43;;;2.97;;
5823;SDS011;2938;52.254;12.988;2022-08-11T14:28:45;7.93;;;3.33;;
5823;SDS011;2938;52.254;12.988;2022-08-11T14:31:33;8.15;;;4.18;;
5823;SDS011;2938;52.254;12.988;2022-08-11T14:34:31;4.55;;;2.75;;
5823;SDS011;2938;52.254;12.988;2022-08-11T14:37:19;3.28;;;2.53;;
5823;SDS011;2938;52.254;12.988;2022-08-11T14:40:09;6.70;;;3.20;;
5823;SDS011;2938;52.254;12.988;2022-08-11T14:43:17;6.05;;;2.72;;
5823;SDS011;2938;52.254;12.988;2022-08-11T14:46:21;4.78;;;2.85;;
5823;SDS011;2938;52.254;12.988;2022-08-11T14:49:25;11.00;;;3.85;;
5823;SDS011;2938;52.254;12.988;2022-08-11T14:52:14;9.23;;;4.00;;
5823;SDS011;2938;52.254;12.988;2022-08-11T14:55:02;3.22;;;2.92;;
5823;SDS011;2938;52.254;12.988;2022-08-11T14:58:09;5.65;;;3.20;;
5823;SDS011;2938;52.254;12.988;2022-08-11T15:00:57;3.08;;;2.72;;
5823;SDS011;2938;52.254;12.988;2022-08-11T15:03:46;4.60;;;3.67;;
5823;SDS011;2938;52.254;12.988;2022-08-11T15:06:33;4.28;;;3.78;;
5823;SDS011;2938;52.254;12.988;2022-08-11T15:09:20;3.90;;;3.05;;
5823;SDS011;2938;52.254;12.988;2022-08-11T15:12:07;10.13;;;3.78;;
5823;SDS011;2938;52.254;12.988;2022-08-11T15:14:55;10.20;;;4.80;;
5823;SDS011;2938;52.254;12.988;2022-08-11T15:17:59;3.95;;;3.35;;
5823;SDS011;2938;52.254;12.988;2022-08-11T15:20:49;5.38;;;3.47;;
5823;SDS011;2938;52.254;12.988;2022-08-11T15:23:54;5.78;;;3.88;;
5823;SDS011;2938;52.254;12.988;2022-08-11T15:26:58;6.28;;;3.60;;
5823;SDS011;2938;52.254;12.988;2022-08-11T15:30:06;7.13;;;3.15;;
5823;SDS011;2938;52.254;12.988;2022-08-11T15:33:11;3.72;;;3.10;;
5823;SDS011;2938;52.254;12.988;2022-08-11T15:36:18;5.38;;;2.67;;
5823;SDS011;2938;52.254;12.988;2022-08-11T15:39:26;7.90;;;3.72;;
5823;SDS011;2938;52.254;12.988;2022-08-11T15:42:15;7.75;;;3.22;;
5823;SDS011;2938;52.254;12.988;2022-08-11T15:45:21;3.28;;;2.38;;
5823;SDS011;2938;52.254;12.988;2022-08-11T15:48:27;3.83;;;3.22;;
5823;SDS011;2938;52.254;12.988;2022-08-11T15:51:16;3.45;;;3.13;;
5823;SDS011;2938;52.254;12.988;2022-08-11T15:54:07;4.57;;;3.20;;
5823;SDS011;2938;52.254;12.988;2022-08-11T15:56:56;12.75;;;3.72;;
5823;SDS011;2938;52.254;12.988;2022-08-11T15:59:46;3.80;;;2.95;;
5823;SDS011;2938;52.254;12.988;2022-08-11T16:02:51;7.97;;;2.45;;
5823;SDS011;2938;52.254;12.988;2022-08-11T16:05:56;2.90;;;2.20;;
5823;SDS011;2938;52.254;12.988;2022-08-11T16:08:43;4.43;;;2.40;;
5823;SDS011;2938;52.254;12.988;2022-08-11T16:11:31;6.55;;;2.33;;
5823;SDS011;2938;52.254;12.988;2022-08-11T16:14:19;6.72;;;2.75;;
5823;SDS011;2938;52.254;12.988;2022-08-11T16:17:26;7.05;;;2.42;;
5823;SDS011;2938;52.254;12.988;2022-08-11T16:20:16;5.28;;;2.47;;
5823;SDS011;2938;52.254;12.988;2022-08-11T16:23:05;4.80;;;2.33;;
5823;SDS011;2938;52.254;12.988;2022-08-11T16:25:54;11.10;;;2.00;;
5823;SDS011;2938;52.254;12.988;2022-08-11T16:28:41;8.85;;;2.45;;
5823;SDS011;2938;52.254;12.988;2022-08-11T16:31:29;3.42;;;2.00;;
5823;SDS011;2938;52.254;12.988;2022-08-11T16:34:17;2.20;;;2.00;;
5823;SDS011;2938;52.254;12.988;2022-08-11T16:37:19;8.60;;;2.38;;
5823;SDS011;2938;52.254;12.988;2022-08-11T16:40:26;7.97;;;2.25;;
5823;SDS011;2938;52.254;12.988;2022-08-11T16:43:14;2.10;;;1.92;;
5823;SDS011;2938;52.254;12.988;2022-08-11T16:46:20;20.50;;;3.88;;
5823;SDS011;2938;52.254;12.988;2022-08-11T16:49:27;20.27;;;2.50;;
5823;SDS011;2938;52.254;12.988;2022-08-11T16:52:17;4.80;;;1.92;;
5823;SDS011;2938;52.254;12.988;2022-08-11T16:55:06;9.95;;;2.22;;
5823;SDS011;2938;52.254;12.988;2022-08-11T16:57:54;4.90;;;2.25;;
5823;SDS011;2938;52.254;12.988;2022-08-11T17:00:58;5.95;;;1.70;;
5823;SDS011;2938;52.254;12.988;2022-08-11T17:03:50;5.32;;;2.53;;
5823;SDS011;2938;52.254;12.988;2022-08-11T17:06:56;5.75;;;2.28;;
5823;SDS011;2938;52.254;12.988;2022-08-11T17:10:02;13.25;;;2.47;;
5823;SDS011;2938;52.254;12.988;2022-08-11T17:13:10;3.15;;;1.90;;
5823;SDS011;2938;52.254;12.988;2022-08-11T17:16:01;3.25;;;1.67;;
5823;SDS011;2938;52.254;12.988;2022-08-11T17:18:54;3.53;;;1.63;;
5823;SDS011;2938;52.254;12.988;2022-08-11T17:21:44;2.63;;;2.20;;
5823;SDS011;2938;52.254;12.988;2022-08-11T17:24:46;3.67;;;1.98;;
5823;SDS011;2938;52.254;12.988;2022-08-11T17:27:36;6.28;;;2.53;;
5823;SDS011;2938;52.254;12.988;2022-08-11T17:30:24;2.13;;;1.80;;
5823;SDS011;2938;52.254;12.988;2022-08-11T17:33:32;6.90;;;2.15;;
5823;SDS011;2938;52.254;12.988;2022-08-11T17:36:49;4.13;;;2.95;;
5823;SDS011;2938;52.254;12.988;2022-08-11T17:39:36;2.90;;;2.33;;
5823;SDS011;2938;52.254;12.988;2022-08-11T17:42:24;6.15;;;3.13;;
5823;SDS011;2938;52.254;12.988;2022-08-11T17:45:32;4.05;;;1.70;;
5823;SDS011;2938;52.254;12.988;2022-08-11T17:48:41;3.60;;;2.28;;
5823;SDS011;2938;52.254;12.988;2022-08-11T17:51:28;2.78;;;1.77;;
5823;SDS011;2938;52.254;12.988;2022-08-11T17:54:29;3.42;;;1.48;;
5823;SDS011;2938;52.254;12.988;2022-08-11T17:57:34;6.20;;;2.70;;
5823;SDS011;2938;52.254;12.988;2022-08-11T18:00:40;2.13;;;1.60;;
5823;SDS011;2938;52.254;12.988;2022-08-11T18:03:27;3.80;;;2.38;;
5823;SDS011;2938;52.254;12.988;2022-08-11T18:06:16;5.25;;;2.30;;
5823;SDS011;2938;52.254;12.988;2022-08-11T18:09:04;2.60;;;1.48;;
5823;SDS011;2938;52.254;12.988;2022-08-11T18:12:11;7.72;;;1.73;;
5823;SDS011;2938;52.254;12.988;2022-08-11T18:15:16;7.07;;;1.80;;
5823;SDS011;2938;52.254;12.988;2022-08-11T18:18:22;4.60;;;1.70;;
5823;SDS011;2938;52.254;12.988;2022-08-11T18:21:26;1.92;;;1.55;;
5823;SDS011;2938;52.254;12.988;2022-08-11T18:24:33;7.88;;;1.70;;
5823;SDS011;2938;52.254;12.988;2022-08-11T18:27:42;7.38;;;1.70;;
5823;SDS011;2938;52.254;12.988;2022-08-11T18:30:49;4.60;;;2.10;;
5823;SDS011;2938;52.254;12.988;2022-08-11T18:33:55;7.70;;;2.10;;
5823;SDS011;2938;52.254;12.988;2022-08-11T18:37:01;10.10;;;2.40;;
5823;SDS011;2938;52.254;12.988;2022-08-11T18:40:08;5.20;;;1.85;;
5823;SDS011;2938;52.254;12.988;2022-08-11T18:43:15;1.95;;;1.67;;